x

Santa Monica Basin - 33nm Wsw Of Santa Monica, Ca (46025) Wave Buoy

4:50pm - Mon 22nd Sep 2014 All times are PDT. -7 hours from GMT.

  • Sig Wave height 2.0ft
  • Swell Direction
  • Peak Period 16s
  • Average Period 6s
  • Wind
    11mph
  • Sea Temp 73°f
  • Air Temp 69°f
  • Sea Pressure 1012.8mb
  • Santa Monica Basin - 33nm Wsw Of Santa Monica, Ca
  • Santa Monica Basin - 33nm Wsw Of Santa Monica, Ca

More Historic Weather Station data

Upgrade to MSW Pro to gain access to the past 30 days of data for over 8000 Wavebouys and Weather Stations around the globe.

Join Pro

Comparision Forecast

View Surf forecast
   
Mon 09/22 4:50pm 2ft 16s 6s 11
mph
1012.8mb 73f 69f
3:50pm 2ft 14s 6s 7 9 mph 1013.4mb 74f 69f
1:50pm 2ft 14s 6s 4 7 mph 1014.5mb 74f 68f
12:50pm 2ft 14s 6s 2 7 mph 1015.1mb 74f 68f
11:50am 2ft 14s 6s 2 4 mph 1015.5mb 73f 69f
10:50am 2ft 15s 6s 4 7 mph 1015.4mb 72f 68f
9:50am 2.5ft 14s 6s 4 7 mph 1015.4mb 72f 67f
8:50am 2.5ft 15s 6s 4 7 mph 1015mb 71f 67f
7:50am 2.5ft 12s 5s 2 4 mph 1014.4mb 71f 67f
6:50am 2.5ft 11s 5s 2 4 mph 1014mb 72f 67f
5:50am 2.5ft 6s 5s 4
mph
1013.8mb 72f 67f
4:50am 2.5ft 14s 5s 2 4 mph 1013.7mb 72f 67f
3:50am 3ft 11s 5s 7 9 mph 1013.8mb 72f 67f
2:50am 3ft 15s 5s 7
mph
1014.1mb 72f 68f
1:50am 3ft 13s 5s 7 9 mph 1014mb 72f 68f
12:50am 3ft 5s 5s 11 13 mph 1014mb 72f 68f
Sun 09/21 11:50pm 2.5ft 5s 5s 11 18 mph 1013.7mb 72f 69f
10:50pm 2.5ft 13s 5s 9
mph
1013.8mb 72f 68f
9:50pm 2.5ft 14s 4s 7 11 mph 1013.7mb 72f 69f
8:50pm 2.5ft 14s 5s 11 13 mph 1013.7mb 72f 68f
7:50pm 2ft 14s 5s 11 16 mph 1013.3mb 73f 68f
6:50pm 2ft 13s 5s 13 16 mph 1013.2mb 73f 68f
5:50pm 2ft 12s 5s 11 13 mph 1013.5mb 73f 69f
4:50pm 2.5ft 12s 5s 9 11 mph 1013.6mb 73f 69f
3:50pm 2.5ft 12s 6s 11 13 mph 1013.9mb 73f 69f
2:50pm 2ft 14s 6s 11 13 mph 1014.3mb 73f 69f
1:50pm 2.5ft 14s 6s 7 9 mph 1014.7mb 73f 68f
12:50pm 2.5ft 12s 6s 7
mph
1015.2mb 73f 68f
11:50am 2.5ft 14s 6s 4 7 mph 1015.6mb 73f 67f
10:50am 2.5ft 13s 6s 7 9 mph 1015.9mb 72f 67f
9:50am 2.5ft 13s 6s 7 9 mph 1015.7mb 72f 67f
8:50am 2.5ft 13s 6s 7 9 mph 1015.3mb 72f 67f
7:50am 2.5ft 14s 6s 7 9 mph 1014.9mb 72f 67f
6:50am 3ft 14s 6s 7 9 mph 1014.4mb 72f 67f
5:50am 3ft 13s 5s 7 9 mph 1013.7mb 72f 67f
4:50am 3.5ft 14s 5s 7 9 mph 1013.4mb 72f 67f
3:50am 3.5ft 14s 5s 7 9 mph 1013.2mb 72f 68f
2:50am 3.5ft 14s 5s 7 9 mph 1013.3mb 72f 68f
1:50am 3.5ft 14s 5s 9 11 mph 1013.5mb 72f 68f
12:50am 3ft 12s 6s 4 7 mph 1013.5mb 72f 68f
Sat 09/20 11:50pm 2.5ft 15s 6s 9 11 mph 1013.6mb 72f 68f
10:50pm 2.5ft 13s 6s 11 13 mph 1013.4mb 72f 68f
9:50pm 2.5ft 15s 6s 11 13 mph 1013mb 72f 68f
8:50pm 3ft 14s 7s 9 11 mph 1012.7mb 72f 69f
7:50pm 2.5ft 14s 7s 9 11 mph 1012.2mb 72f 69f
6:50pm 2.5ft 13s 7s 11 13 mph 1011.9mb 72f 69f
5:50pm 2.5ft 14s 7s 11 13 mph 1011.9mb 72f 69f
4:50pm 3ft 15s 7s 9
mph
1011.9mb 73f 69f
3:50pm 2.5ft 13s 7s 7 9 mph 1012.2mb 73f 70f
2:50pm 2.5ft 14s 7s 7 9 mph 1012.6mb 73f 70f
1:50pm 3ft 14s 7s 7 9 mph 1013.1mb 73f 69f
12:50pm 3ft 13s 6s 2 4 mph 1013.8mb 72f 69f
11:50am 3ft 14s 6s 4
mph
1014.2mb 72f 69f
10:50am 3.5ft 14s 7s 7 9 mph 1014.3mb 72f 68f
9:50am 3.5ft 14s 7s 7
mph
1014.1mb 72f 69f
8:50am 3.5ft 14s 7s 9
mph
1013.5mb 72f 68f
7:50am 3.5ft 14s 7s 2
mph
1013mb 71f 69f
6:50am 3.5ft 15s 6s 4 7 mph 1012.3mb 72f 69f
5:50am 3.5ft 14s 6s 4 7 mph 1011.8mb 72f 69f
4:50am 3.5ft 14s 6s 7
mph
1011.5mb 72f 69f
3:50am 3.5ft 7s 6s 2 4 mph 1011.7mb 72f 68f
2:50am 3.5ft 14s 6s 7 9 mph 1011.7mb 72f 69f
1:50am 3.5ft 14s 6s 9 11 mph 1011.7mb 72f 69f
12:50am 3.5ft 15s 6s 9
mph
1011.7mb 72f 69f
Fri 09/19 11:50pm 4ft 15s 6s 11 13 mph 1011.6mb 72f 69f
10:50pm 3.5ft 15s 6s 11 16 mph 1011.7mb 72f 69f
9:50pm 3.5ft 15s 6s 7 9 mph 1011.3mb 72f 68f
8:50pm 4ft 15s 6s 9 11 mph 1011.1mb 72f 69f
7:50pm 4ft 14s 6s 11 13 mph 1010.4mb 72f 69f
6:50pm 4ft 15s 6s 11 13 mph 1010.3mb 72f 69f
5:50pm 4.5ft 14s 7s 11
mph
1010.2mb 73f 69f
4:50pm 4ft 15s 7s 7 9 mph 1010.3mb 73f 70f
3:50pm 4ft 15s 7s 9 11 mph 1010.6mb 73f 70f
1:50pm 4.5ft 15s 7s 7
mph
1011.3mb 73f 70f
12:50pm 4.5ft 15s 7s 9 11 mph 1011.8mb 73f 69f
11:50am 4.5ft 15s 7s 9 11 mph 1012.1mb 73f 69f
10:50am 4ft 15s 7s 11 13 mph 1012.3mb 73f 69f
9:50am 4.5ft 15s 7s 11 13 mph 1012.4mb 73f 69f
8:50am 4ft 15s 7s 9 11 mph 1012.1mb 72f 69f
7:50am 4.5ft 15s 7s 4 7 mph 1011.9mb 72f 69f
6:50am 4.5ft 15s 6s 2 7 mph 1011.2mb 72f 67f
5:50am 4.5ft 15s 7s 4 7 mph 1010.9mb 72f 68f
4:50am 5ft 14s 7s 4 7 mph 1010.7mb 72f 68f
3:50am 5ft 9s 6s 9 11 mph 1010.7mb 72f 68f
2:50am 5ft 15s 6s 9 11 mph 1011mb 72f 68f
1:50am 5ft 9s 6s 11 16 mph 1011.1mb 72f 68f